createdAt,value
2023-03-24T00:00:18.480Z,1.60
2023-03-24T00:02:46.661Z,1.70
2023-03-24T00:05:15.742Z,1.50
2023-03-24T00:07:43.490Z,1.30
2023-03-24T00:10:12.317Z,1.43
2023-03-24T00:12:39.832Z,1.67
2023-03-24T00:15:08.335Z,1.50
2023-03-24T00:17:36.788Z,1.60
2023-03-24T00:20:13.730Z,1.70
2023-03-24T00:22:49.651Z,1.50
2023-03-24T00:25:20.783Z,1.60
2023-03-24T00:27:51.384Z,1.70
2023-03-24T00:30:19.388Z,1.23
2023-03-24T00:32:46.739Z,1.60
2023-03-24T00:35:16.248Z,1.77
2023-03-24T00:37:44.530Z,1.60
2023-03-24T00:40:13.736Z,1.50
2023-03-24T00:42:41.573Z,1.97
2023-03-24T00:45:09.510Z,1.70
2023-03-24T00:47:38.016Z,1.50
2023-03-24T00:50:09.719Z,1.80
2023-03-24T00:52:36.880Z,1.40
2023-03-24T00:55:05.629Z,1.60
2023-03-24T00:57:36.180Z,1.37
2023-03-24T01:00:14.176Z,1.80
2023-03-24T01:02:41.350Z,1.63
2023-03-24T01:05:08.989Z,1.60
2023-03-24T01:07:36.175Z,1.60
2023-03-24T01:10:03.586Z,1.70
2023-03-24T01:12:31.990Z,1.60
2023-03-24T01:15:00.267Z,1.60
2023-03-24T01:17:29.534Z,1.80
2023-03-24T01:19:57.356Z,1.83
2023-03-24T01:22:28.331Z,2.07
2023-03-24T01:24:55.533Z,1.97
2023-03-24T01:27:22.797Z,2.00
2023-03-24T01:29:49.943Z,1.80
2023-03-24T01:32:17.073Z,1.87
2023-03-24T01:34:44.244Z,1.70
2023-03-24T01:37:11.324Z,1.73
2023-03-24T01:39:40.509Z,2.00
2023-03-24T01:42:10.599Z,2.03
2023-03-24T01:44:38.689Z,1.73
2023-03-24T01:47:08.787Z,1.73
2023-03-24T01:49:42.416Z,1.90
2023-03-24T01:52:18.935Z,2.00
2023-03-24T01:54:51.555Z,1.57
2023-03-24T01:57:25.644Z,1.70
2023-03-24T01:59:55.348Z,1.77
2023-03-24T02:02:23.020Z,1.90
2023-03-24T02:04:59.407Z,1.90
2023-03-24T02:07:34.311Z,1.97
2023-03-24T02:10:02.592Z,1.83
2023-03-24T02:12:30.643Z,2.00
2023-03-24T02:14:57.802Z,2.27
2023-03-24T02:17:34.257Z,2.30
2023-03-24T02:20:11.272Z,2.03
2023-03-24T02:22:56.826Z,1.97
2023-03-24T02:26:03.360Z,2.00
2023-03-24T02:28:32.072Z,2.00
2023-03-24T02:30:59.888Z,1.80
2023-03-24T02:33:26.975Z,2.10
2023-03-24T02:36:06.223Z,1.97
2023-03-24T02:38:36.516Z,2.23
2023-03-24T02:41:18.745Z,1.83
2023-03-24T02:43:51.865Z,2.00
2023-03-24T02:46:24.821Z,1.90
2023-03-24T02:48:51.963Z,1.97
2023-03-24T02:51:33.268Z,2.00
2023-03-24T02:54:03.506Z,2.00
2023-03-24T02:56:36.314Z,1.90
2023-03-24T02:59:05.186Z,2.00
2023-03-24T03:01:35.965Z,1.93
2023-03-24T03:04:05.948Z,1.80
2023-03-24T03:06:40.545Z,1.90
2023-03-24T03:09:12.411Z,1.80
2023-03-24T03:11:41.485Z,2.10
2023-03-24T03:14:13.420Z,1.70
2023-03-24T03:16:47.786Z,1.77
2023-03-24T03:19:20.143Z,1.73
2023-03-24T03:21:49.609Z,1.97
2023-03-24T03:24:26.610Z,1.77
2023-03-24T03:27:05.935Z,1.90
2023-03-24T03:29:44.240Z,2.00
2023-03-24T03:32:15.447Z,1.83
2023-03-24T03:34:45.581Z,1.87
2023-03-24T03:37:35.796Z,2.00
2023-03-24T03:40:06.724Z,1.80
2023-03-24T03:42:33.880Z,2.10
2023-03-24T03:45:01.468Z,1.93
2023-03-24T03:47:28.661Z,2.20
2023-03-24T03:49:55.770Z,2.10
2023-03-24T03:52:23.015Z,1.90
2023-03-24T03:54:51.434Z,2.03
2023-03-24T03:57:18.863Z,2.07
2023-03-24T03:59:46.087Z,2.20
2023-03-24T04:02:19.179Z,2.10
2023-03-24T04:05:03.226Z,1.97
2023-03-24T04:07:33.618Z,2.00
2023-03-24T04:10:08.296Z,2.10
2023-03-24T04:13:00.549Z,2.10
2023-03-24T04:15:33.847Z,1.80
2023-03-24T04:18:13.171Z,2.07
2023-03-24T04:20:46.584Z,2.40
2023-03-24T04:23:18.282Z,2.00
2023-03-24T04:25:45.572Z,2.20
2023-03-24T04:28:12.732Z,2.00
2023-03-24T04:30:39.960Z,2.30
2023-03-24T04:33:17.869Z,2.30
2023-03-24T04:35:52.502Z,2.40
2023-03-24T04:38:25.991Z,2.20
2023-03-24T04:40:55.716Z,2.47
2023-03-24T04:43:25.090Z,1.67
2023-03-24T04:45:53.196Z,2.10
2023-03-24T04:48:20.866Z,2.13
2023-03-24T04:50:56.155Z,2.40
2023-03-24T04:53:23.741Z,2.27
2023-03-24T04:55:50.792Z,2.20
2023-03-24T04:58:18.436Z,1.97
2023-03-24T05:00:45.833Z,2.30
2023-03-24T05:03:16.521Z,2.30
2023-03-24T05:05:44.910Z,2.30
2023-03-24T05:08:12.360Z,2.30
2023-03-24T05:10:39.622Z,2.40
2023-03-24T05:13:07.672Z,3.03
2023-03-24T05:15:35.291Z,2.47
2023-03-24T05:18:02.734Z,2.47
2023-03-24T05:20:30.244Z,2.50
2023-03-24T05:22:57.507Z,2.30
2023-03-24T05:25:24.673Z,2.80
2023-03-24T05:27:51.797Z,2.80
2023-03-24T05:30:20.430Z,2.60
2023-03-24T05:32:47.671Z,2.40
2023-03-24T05:35:15.002Z,2.67
2023-03-24T05:37:42.078Z,2.83
2023-03-24T05:40:09.780Z,2.97
2023-03-24T05:42:36.833Z,2.93
2023-03-24T05:45:04.431Z,2.87
2023-03-24T05:47:31.627Z,3.00
2023-03-24T05:49:58.738Z,3.30
2023-03-24T05:52:28.682Z,2.97
2023-03-24T05:54:56.076Z,2.90
2023-03-24T05:57:23.277Z,2.80
2023-03-24T05:59:52.057Z,3.00
2023-03-24T06:02:19.230Z,2.87
2023-03-24T06:04:49.077Z,2.80
2023-03-24T06:07:16.692Z,3.03
2023-03-24T06:09:46.962Z,3.30
2023-03-24T06:12:16.040Z,3.07
2023-03-24T06:14:43.811Z,3.13
2023-03-24T06:17:14.797Z,3.00
2023-03-24T06:19:49.404Z,3.20
2023-03-24T06:22:17.645Z,3.13
2023-03-24T06:24:45.229Z,3.23
2023-03-24T06:27:14.063Z,3.40
2023-03-24T06:29:42.459Z,3.30
2023-03-24T06:32:10.178Z,3.30
2023-03-24T06:34:38.878Z,3.10
2023-03-24T06:37:06.056Z,2.80
2023-03-24T06:39:33.160Z,3.00
2023-03-24T06:42:00.268Z,2.80
2023-03-24T06:44:27.665Z,3.00
2023-03-24T06:46:54.847Z,3.13
2023-03-24T06:49:22.057Z,2.80
2023-03-24T06:51:49.210Z,2.70
2023-03-24T06:54:16.859Z,2.67
2023-03-24T06:56:44.200Z,2.83
2023-03-24T06:59:11.338Z,2.63
2023-03-24T07:01:38.689Z,2.40
2023-03-24T07:04:06.219Z,2.57
2023-03-24T07:06:40.314Z,2.80
2023-03-24T07:09:12.044Z,2.60
2023-03-24T07:11:39.602Z,2.30
2023-03-24T07:14:07.332Z,2.20
2023-03-24T07:16:34.484Z,2.00
2023-03-24T07:19:01.647Z,2.57
2023-03-24T07:21:28.728Z,2.07
2023-03-24T07:23:55.881Z,2.07
2023-03-24T07:26:24.499Z,2.00
2023-03-24T07:28:51.574Z,2.10
2023-03-24T07:31:18.780Z,1.93
2023-03-24T07:33:45.881Z,1.90
2023-03-24T07:36:13.062Z,2.00
2023-03-24T07:38:40.299Z,1.70
2023-03-24T07:41:07.360Z,1.70
2023-03-24T07:43:35.188Z,2.40
2023-03-24T07:46:02.337Z,2.40
2023-03-24T07:48:29.482Z,2.10
2023-03-24T07:50:56.609Z,2.00
2023-03-24T07:53:24.010Z,1.63
2023-03-24T07:55:51.337Z,2.23
2023-03-24T07:58:18.501Z,2.03
2023-03-24T08:00:45.601Z,2.00
2023-03-24T08:03:14.420Z,2.07
2023-03-24T08:05:42.417Z,2.00
2023-03-24T08:08:09.563Z,2.00
2023-03-24T08:10:36.982Z,2.10
2023-03-24T08:13:04.188Z,2.07
2023-03-24T08:15:31.653Z,2.20
2023-03-24T08:17:58.803Z,1.80
2023-03-24T08:20:27.304Z,2.00
2023-03-24T08:22:54.849Z,1.90
2023-03-24T08:25:23.950Z,1.97
2023-03-24T08:27:51.674Z,2.20
2023-03-24T08:30:20.330Z,1.90
2023-03-24T08:32:48.657Z,1.90
2023-03-24T08:35:16.997Z,2.07
2023-03-24T08:37:45.301Z,1.70
2023-03-24T08:40:14.530Z,1.60
2023-03-24T08:42:42.072Z,1.67
2023-03-24T08:45:09.685Z,1.80
2023-03-24T08:47:36.765Z,1.67
2023-03-24T08:50:04.881Z,2.23
2023-03-24T08:52:32.045Z,1.77
2023-03-24T08:54:59.157Z,2.00
2023-03-24T08:57:26.508Z,1.80
2023-03-24T08:59:53.575Z,1.93
2023-03-24T09:02:20.712Z,1.63
2023-03-24T09:04:47.862Z,1.80
2023-03-24T09:07:14.988Z,1.50
2023-03-24T09:09:42.131Z,1.70
2023-03-24T09:12:09.769Z,1.77
2023-03-24T09:14:36.934Z,1.90
2023-03-24T09:17:04.351Z,1.73
2023-03-24T09:19:32.049Z,1.90
2023-03-24T09:21:59.117Z,1.80
2023-03-24T09:24:26.450Z,1.57
2023-03-24T09:26:53.619Z,2.00
2023-03-24T09:29:20.805Z,1.63
2023-03-24T09:31:47.969Z,1.70
2023-03-24T09:34:15.590Z,1.67
2023-03-24T09:36:42.646Z,1.80
2023-03-24T09:39:09.801Z,1.90
2023-03-24T09:41:37.237Z,2.20
2023-03-24T09:44:06.955Z,2.13
2023-03-24T09:46:43.727Z,1.90
2023-03-24T09:49:14.498Z,1.70
2023-03-24T09:51:45.864Z,1.67
2023-03-24T09:54:27.379Z,2.00
2023-03-24T09:56:55.920Z,1.60
2023-03-24T09:59:32.783Z,1.60
2023-03-24T10:01:59.889Z,1.50
2023-03-24T10:04:28.195Z,1.50
2023-03-24T10:07:09.659Z,2.00
2023-03-24T10:09:37.005Z,1.50
2023-03-24T10:12:04.100Z,1.30
2023-03-24T10:14:31.184Z,1.30
2023-03-24T10:17:06.656Z,1.17
2023-03-24T10:19:49.307Z,1.03
2023-03-24T10:22:37.599Z,1.00
2023-03-24T10:25:14.476Z,0.93
2023-03-24T10:27:49.933Z,0.70
2023-03-24T10:30:17.099Z,0.80
2023-03-24T10:32:45.220Z,0.90
2023-03-24T10:35:16.939Z,0.80
2023-03-24T10:37:45.842Z,0.70
2023-03-24T10:40:16.477Z,0.87
2023-03-24T10:42:44.661Z,0.93
2023-03-24T10:45:16.038Z,0.80
2023-03-24T10:47:43.372Z,0.70
2023-03-24T10:50:12.613Z,0.60
2023-03-24T10:52:43.691Z,0.63
2023-03-24T10:55:14.647Z,0.50
2023-03-24T10:57:44.151Z,0.50
2023-03-24T11:00:19.200Z,0.50
2023-03-24T11:02:54.954Z,0.73
2023-03-24T11:05:23.499Z,0.50
2023-03-24T11:07:51.922Z,0.40
2023-03-24T11:10:21.218Z,0.50
2023-03-24T11:12:54.214Z,0.50
2023-03-24T11:15:24.047Z,0.40
2023-03-24T11:17:53.955Z,0.30
2023-03-24T11:20:23.651Z,0.60
2023-03-24T11:22:57.488Z,0.50
2023-03-24T11:25:34.249Z,0.70
2023-03-24T11:28:04.073Z,0.50
2023-03-24T11:30:34.525Z,0.40
2023-03-24T11:33:03.962Z,0.67
2023-03-24T11:35:41.388Z,0.60
2023-03-24T11:38:09.263Z,0.60
2023-03-24T11:40:36.340Z,0.80
2023-03-24T11:43:08.096Z,0.70
2023-03-24T11:45:35.409Z,0.70
2023-03-24T11:48:05.438Z,0.70
2023-03-24T11:50:34.510Z,0.70
2023-03-24T11:53:04.267Z,0.80
2023-03-24T11:55:48.271Z,0.67
2023-03-24T11:58:18.784Z,0.67
2023-03-24T12:00:53.150Z,0.80
2023-03-24T12:03:39.408Z,0.90
2023-03-24T12:06:15.842Z,0.70
2023-03-24T12:08:43.003Z,0.70
2023-03-24T12:11:34.007Z,0.80
2023-03-24T12:14:03.292Z,0.80
2023-03-24T12:16:48.737Z,0.67
2023-03-24T12:19:35.462Z,0.60
2023-03-24T12:22:02.566Z,0.60
2023-03-24T12:24:53.165Z,0.60
2023-03-24T12:27:25.689Z,0.63
2023-03-24T12:30:05.408Z,0.47
2023-03-24T12:32:44.156Z,0.40
2023-03-24T12:35:20.356Z,0.40
2023-03-24T12:38:06.563Z,0.53
2023-03-24T12:40:33.644Z,0.50
2023-03-24T12:43:23.932Z,0.70
2023-03-24T12:45:52.657Z,0.70
2023-03-24T12:48:22.618Z,0.50
2023-03-24T12:51:01.606Z,0.60
2023-03-24T12:53:36.915Z,0.50
2023-03-24T12:56:06.834Z,0.40
2023-03-24T12:58:41.465Z,0.50
2023-03-24T13:01:14.254Z,0.70
2023-03-24T13:03:45.333Z,0.70
2023-03-24T13:06:17.659Z,0.60
2023-03-24T13:08:49.354Z,0.57
2023-03-24T13:11:31.937Z,0.60
2023-03-24T13:14:02.023Z,0.70
2023-03-24T13:16:31.498Z,0.50
2023-03-24T13:19:03.646Z,0.40
2023-03-24T13:21:35.052Z,0.60
2023-03-24T13:24:02.146Z,0.70
2023-03-24T13:26:39.399Z,0.60
2023-03-24T13:29:38.425Z,0.70
2023-03-24T13:32:14.998Z,0.70
2023-03-24T13:34:48.847Z,0.70
2023-03-24T13:37:24.529Z,0.60
2023-03-24T13:39:56.270Z,0.70
2023-03-24T13:42:26.115Z,0.83
2023-03-24T13:44:53.248Z,0.60
2023-03-24T13:47:20.628Z,0.90
2023-03-24T13:49:56.937Z,0.60
2023-03-24T13:52:28.852Z,0.80
2023-03-24T13:54:58.774Z,0.77
2023-03-24T13:57:26.522Z,0.80
2023-03-24T14:00:08.613Z,0.40
2023-03-24T14:02:47.755Z,0.50
2023-03-24T14:05:24.119Z,0.53
2023-03-24T14:07:52.155Z,0.47
2023-03-24T14:10:20.818Z,0.43
2023-03-24T14:13:02.802Z,0.80
2023-03-24T14:15:33.120Z,1.00
2023-03-24T14:18:19.487Z,0.60
2023-03-24T14:20:58.587Z,0.70
2023-03-24T14:23:45.603Z,0.50
2023-03-24T14:26:12.723Z,0.90
2023-03-24T14:28:41.264Z,0.90
2023-03-24T14:31:17.089Z,0.80
2023-03-24T14:34:05.831Z,0.50
2023-03-24T14:36:40.708Z,0.60
2023-03-24T14:39:08.870Z,0.60
2023-03-24T14:41:39.823Z,0.70
2023-03-24T14:44:07.394Z,1.00
2023-03-24T14:46:39.528Z,1.07
2023-03-24T14:49:14.418Z,1.60
2023-03-24T14:51:48.883Z,1.53
2023-03-24T14:54:17.763Z,1.20
2023-03-24T14:56:47.159Z,1.00
2023-03-24T14:59:41.018Z,0.70
2023-03-24T15:02:18.864Z,0.70
2023-03-24T15:05:04.561Z,0.70
2023-03-24T15:07:31.628Z,1.20
2023-03-24T15:09:58.704Z,1.27
2023-03-24T15:12:25.849Z,0.80
2023-03-24T15:14:52.986Z,0.83
2023-03-24T15:17:23.111Z,0.90
2023-03-24T15:19:54.427Z,0.80
2023-03-24T15:22:21.732Z,0.57
2023-03-24T15:24:49.961Z,0.80
2023-03-24T15:27:17.110Z,0.70
2023-03-24T15:29:44.743Z,0.87
2023-03-24T15:32:19.242Z,0.83
2023-03-24T15:34:51.665Z,0.57
2023-03-24T15:37:23.477Z,0.90
2023-03-24T15:39:53.889Z,0.80
2023-03-24T15:42:24.869Z,0.70
2023-03-24T15:44:52.540Z,0.70
2023-03-24T15:47:28.180Z,0.87
2023-03-24T15:49:57.034Z,0.60
2023-03-24T15:52:26.912Z,0.60
2023-03-24T15:54:55.928Z,0.80
2023-03-24T15:57:23.890Z,0.60
2023-03-24T16:00:15.964Z,1.00
2023-03-24T16:02:49.133Z,0.87
2023-03-24T16:05:30.623Z,1.00
2023-03-24T16:07:59.446Z,0.80
2023-03-24T16:10:26.716Z,1.03
2023-03-24T16:12:53.962Z,0.90
2023-03-24T16:15:21.042Z,0.80
2023-03-24T16:17:48.410Z,0.70
2023-03-24T16:20:20.320Z,1.10
2023-03-24T16:22:47.369Z,0.83
2023-03-24T16:25:14.944Z,0.60
2023-03-24T16:27:41.998Z,0.80
2023-03-24T16:30:18.304Z,1.00
2023-03-24T16:32:46.035Z,1.00
2023-03-24T16:35:13.327Z,0.90
2023-03-24T16:37:42.356Z,1.37
2023-03-24T16:40:24.576Z,1.20
2023-03-24T16:42:51.628Z,1.33
2023-03-24T16:45:18.726Z,1.70
2023-03-24T16:47:46.774Z,1.10
2023-03-24T16:50:37.327Z,1.00
2023-03-24T16:53:04.753Z,1.10
2023-03-24T16:55:34.856Z,1.10
2023-03-24T16:58:02.443Z,1.00
2023-03-24T17:00:29.875Z,1.20
2023-03-24T17:02:59.847Z,1.40
2023-03-24T17:05:28.442Z,1.60
2023-03-24T17:07:56.502Z,1.43
2023-03-24T17:10:27.218Z,1.30
2023-03-24T17:12:55.958Z,1.10
2023-03-24T17:15:27.132Z,1.17
2023-03-24T17:17:54.875Z,1.03
2023-03-24T17:20:22.638Z,0.80
2023-03-24T17:22:51.243Z,1.20
2023-03-24T17:25:21.128Z,1.30
2023-03-24T17:27:48.388Z,2.33
2023-03-24T17:30:16.894Z,2.50
2023-03-24T17:32:44.081Z,1.57
2023-03-24T17:35:12.110Z,1.00
2023-03-24T17:37:39.237Z,1.70
2023-03-24T17:40:09.595Z,1.13
2023-03-24T17:42:37.508Z,0.90
2023-03-24T17:45:05.826Z,1.07
2023-03-24T17:47:33.028Z,1.30
2023-03-24T17:50:00.387Z,0.80
2023-03-24T17:52:27.619Z,0.70
2023-03-24T17:54:54.703Z,0.90
2023-03-24T17:57:21.899Z,1.10
2023-03-24T17:59:49.009Z,1.20
2023-03-24T18:02:17.739Z,0.70
2023-03-24T18:04:44.864Z,1.27
2023-03-24T18:07:11.909Z,0.90
2023-03-24T18:09:39.182Z,1.10
2023-03-24T18:12:06.316Z,0.97
2023-03-24T18:14:33.605Z,0.90
2023-03-24T18:17:01.105Z,1.00
2023-03-24T18:19:28.310Z,1.07
2023-03-24T18:21:55.433Z,1.23
2023-03-24T18:24:25.140Z,1.30
2023-03-24T18:26:52.236Z,1.10
2023-03-24T18:29:22.083Z,0.80
2023-03-24T18:31:50.106Z,0.80
2023-03-24T18:34:17.945Z,1.23
2023-03-24T18:36:46.279Z,0.93
2023-03-24T18:39:13.930Z,1.13
2023-03-24T18:41:41.071Z,1.17
2023-03-24T18:44:15.569Z,1.30
2023-03-24T18:46:43.414Z,1.33
2023-03-24T18:49:13.255Z,1.90
2023-03-24T18:51:40.576Z,1.70
2023-03-24T18:54:07.857Z,1.47
2023-03-24T18:56:35.028Z,2.30
2023-03-24T18:59:02.232Z,2.20
2023-03-24T19:01:30.298Z,2.13
2023-03-24T19:03:57.548Z,2.30
2023-03-24T19:06:31.233Z,2.00
2023-03-24T19:08:59.553Z,2.07
2023-03-24T19:14:20.222Z,2.10
2023-03-24T19:16:47.329Z,2.03
2023-03-24T19:19:18.320Z,2.10
2023-03-24T19:21:45.510Z,1.90
2023-03-24T19:24:12.793Z,1.90
2023-03-24T19:26:40.310Z,1.80
2023-03-24T19:29:07.429Z,1.63
2023-03-24T19:31:35.076Z,1.27
2023-03-24T19:34:02.234Z,1.27
2023-03-24T19:36:29.382Z,1.50
2023-03-24T19:38:56.772Z,1.30
2023-03-24T19:41:26.341Z,1.40
2023-03-24T19:43:53.491Z,1.40
2023-03-24T19:46:21.158Z,1.60
2023-03-24T19:48:48.617Z,1.40
2023-03-24T19:51:15.977Z,1.30
2023-03-24T19:53:43.136Z,1.60
2023-03-24T19:56:10.628Z,1.57
2023-03-24T19:58:37.717Z,1.80
2023-03-24T20:01:04.912Z,1.80
2023-03-24T20:03:32.162Z,1.57
2023-03-24T20:06:03.587Z,1.60
2023-03-24T20:08:30.672Z,1.90
2023-03-24T20:10:57.751Z,1.70
2023-03-24T20:13:25.758Z,1.70
2023-03-24T20:15:53.605Z,1.80
2023-03-24T20:18:21.157Z,1.70
2023-03-24T20:20:48.306Z,1.53
2023-03-24T20:23:15.431Z,1.80
2023-03-24T20:25:42.968Z,1.60
2023-03-24T20:28:10.301Z,1.30
2023-03-24T20:30:37.452Z,1.50
2023-03-24T20:33:04.625Z,1.37
2023-03-24T20:35:32.983Z,1.17
2023-03-24T20:38:01.460Z,1.30
2023-03-24T20:40:28.574Z,1.20
2023-03-24T20:42:56.290Z,1.20
2023-03-24T20:45:23.394Z,1.30
2023-03-24T20:47:50.676Z,1.07
2023-03-24T20:50:17.819Z,0.80
2023-03-24T20:52:45.042Z,1.20
2023-03-24T20:55:12.423Z,1.20
2023-03-24T20:57:39.755Z,1.10
2023-03-24T21:00:13.301Z,1.00
2023-03-24T21:02:41.795Z,1.20
2023-03-24T21:05:09.569Z,1.00
2023-03-24T21:07:38.217Z,1.00
2023-03-24T21:10:06.475Z,1.07
2023-03-24T21:12:34.030Z,1.17
2023-03-24T21:15:01.353Z,0.87
2023-03-24T21:17:32.345Z,1.10
2023-03-24T21:20:06.533Z,1.20
2023-03-24T21:22:37.291Z,1.00
2023-03-24T21:25:05.113Z,0.73
2023-03-24T21:27:32.694Z,1.00
2023-03-24T21:30:00.211Z,0.93
2023-03-24T21:32:27.280Z,0.90
2023-03-24T21:34:54.448Z,0.90
2023-03-24T21:37:25.496Z,1.00
2023-03-24T21:39:52.588Z,0.90
2023-03-24T21:42:22.678Z,0.97
2023-03-24T21:44:54.142Z,1.23
2023-03-24T21:47:22.672Z,1.10
2023-03-24T21:49:49.745Z,1.03
2023-03-24T21:52:18.297Z,1.00
2023-03-24T21:54:45.875Z,1.13
2023-03-24T21:57:12.996Z,1.00
2023-03-24T21:59:40.140Z,1.37
2023-03-24T22:02:14.509Z,1.87
2023-03-24T22:04:41.690Z,1.53
2023-03-24T22:07:10.765Z,1.30
2023-03-24T22:09:37.852Z,1.47
2023-03-24T22:12:05.012Z,1.60
2023-03-24T22:14:32.219Z,1.50
2023-03-24T22:16:59.511Z,1.53
2023-03-24T22:19:26.729Z,1.27
2023-03-24T22:22:00.353Z,1.40
2023-03-24T22:24:29.196Z,1.10
2023-03-24T22:26:59.572Z,1.20
2023-03-24T22:29:28.838Z,1.10
2023-03-24T22:31:56.269Z,0.87
2023-03-24T22:34:23.397Z,1.10
2023-03-24T22:36:50.478Z,0.87
2023-03-24T22:39:17.604Z,0.83
2023-03-24T22:41:45.279Z,0.93
2023-03-24T22:44:12.354Z,1.17
2023-03-24T22:46:39.618Z,1.07
2023-03-24T22:49:06.795Z,1.03
2023-03-24T22:51:33.874Z,0.97
2023-03-24T22:54:01.130Z,0.87
2023-03-24T22:56:28.350Z,1.10
2023-03-24T22:58:55.554Z,1.00
2023-03-24T23:01:22.887Z,1.00
2023-03-24T23:03:50.206Z,1.10
2023-03-24T23:06:17.336Z,1.20
2023-03-24T23:08:44.649Z,1.00
2023-03-24T23:11:11.971Z,1.00
2023-03-24T23:13:39.341Z,1.07
2023-03-24T23:16:06.628Z,1.07
2023-03-24T23:18:33.762Z,1.20
2023-03-24T23:21:06.816Z,1.00
2023-03-24T23:23:34.600Z,1.70
2023-03-24T23:26:03.633Z,1.30
2023-03-24T23:28:31.447Z,1.30
2023-03-24T23:30:58.702Z,1.33
2023-03-24T23:33:25.962Z,1.20
2023-03-24T23:35:57.166Z,1.20
2023-03-24T23:38:24.500Z,1.20
2023-03-24T23:40:51.600Z,1.00
2023-03-24T23:43:18.764Z,1.30
2023-03-24T23:45:46.669Z,1.20
2023-03-24T23:48:13.889Z,1.10
2023-03-24T23:50:41.030Z,1.10
2023-03-24T23:53:08.090Z,1.13
2023-03-24T23:55:35.225Z,0.97
2023-03-24T23:58:02.325Z,1.10
